Time;durP1;ratioP1;P1;durP2;ratioP2;P2;SDS_P1;SDS_P2;PMS_P1;PMS_P2;Temp;Humidity;BMP_temperature;BMP_pressure;BME280_temperature;BME280_humidity;BME280_pressure;Samples;Min_cycle;Max_cycle;Signal;HPM_P1;HPM_P2
2022/10/01 00:01:53;;;;;;;;;;;18.00;99.90;;;;;;5115771;28;19919;-66
2022/10/01 00:04:21;;;;;;;;;;;18.00;99.90;;;;;;5115419;28;19908;-68
2022/10/01 00:06:47;;;;;;;;;;;18.00;99.90;;;;;;5115755;28;19916;-69
2022/10/01 00:09:13;;;;;;;;;;;17.90;99.90;;;;;;5115254;28;19924;-70
2022/10/01 00:11:40;;;;;;;;;;;17.90;99.90;;;;;;5096963;28;19933;-67
2022/10/01 00:14:05;;;;;;;;;;;17.90;99.90;;;;;;5114996;28;19907;-69
2022/10/01 00:16:31;;;;;;;;;;;17.90;99.90;;;;;;5114404;28;19908;-68
2022/10/01 00:18:57;;;;;;;;;;;17.90;99.90;;;;;;5115110;28;19908;-69
2022/10/01 00:21:23;;;;;;;;;;;17.90;99.90;;;;;;5115043;28;20359;-66
2022/10/01 00:23:56;;;;;;;;;;;17.80;99.90;;;;;;5115364;28;20399;-68
2022/10/01 00:26:25;;;;;;;;;;;17.90;99.90;;;;;;5115337;28;19953;-66
2022/10/01 00:28:52;;;;;;;;;;;17.90;99.90;;;;;;5114877;28;19916;-66
2022/10/01 00:31:18;;;;;;;;;;;17.80;99.90;;;;;;5114871;28;19908;-66
2022/10/01 00:33:44;;;;;;;;;;;17.90;99.90;;;;;;5114745;28;19920;-66
2022/10/01 00:36:10;;;;;;;;;;;17.90;99.90;;;;;;5096587;28;19907;-66
2022/10/01 00:38:36;;;;;;;;;;;17.80;99.90;;;;;;5114752;28;20245;-66
2022/10/01 00:41:03;;;;;;;;;;;17.80;99.90;;;;;;5114697;28;20371;-66
2022/10/01 00:43:30;;;;;;;;;;;17.80;99.90;;;;;;5114647;28;20346;-66
2022/10/01 00:46:00;;;;;;;;;;;17.90;99.90;;;;;;5114574;28;20391;-67
2022/10/01 00:48:27;;;;;;;;;;;17.80;99.90;;;;;;5114470;28;19968;-68
2022/10/01 00:50:52;;;;;;;;;;;17.80;99.90;;;;;;5114797;28;19954;-71
2022/10/01 00:53:19;;;;;;;;;;;17.90;99.90;;;;;;5096160;28;20000;-71
2022/10/01 00:55:50;;;;;;;;;;;17.80;99.90;;;;;;5114412;28;19915;-70
2022/10/01 00:58:17;;;;;;;;;;;17.80;99.90;;;;;;5096151;28;19911;-70
2022/10/01 01:00:43;;;;;;;;;;;17.70;99.90;;;;;;5114305;28;19912;-70
2022/10/01 01:03:09;;;;;;;;;;;17.70;99.90;;;;;;5114296;28;20313;-70
2022/10/01 01:05:35;;;;;;;;;;;17.80;99.90;;;;;;5095901;28;20395;-70
2022/10/01 01:08:02;;;;;;;;;;;17.70;99.90;;;;;;5114578;28;20054;-69
2022/10/01 01:10:39;;;;;;;;;;;17.80;99.90;;;;;;5114096;28;19984;-70
2022/10/01 01:13:20;;;;;;;;;;;17.80;99.90;;;;;;5095875;28;19912;-70
2022/10/01 01:15:54;;;;;;;;;;;17.80;99.90;;;;;;5095822;28;20372;-70
2022/10/01 01:18:23;;;;;;;;;;;17.80;99.90;;;;;;5114183;28;19930;-70
2022/10/01 01:21:07;;;;;;;;;;;17.80;99.90;;;;;;5114109;28;19918;-70
2022/10/01 01:23:33;;;;;;;;;;;17.80;99.90;;;;;;5114106;28;19916;-70
2022/10/01 01:26:09;;;;;;;;;;;17.80;99.90;;;;;;5113466;28;20370;-70
2022/10/01 01:28:56;;;;;;;;;;;17.80;99.90;;;;;;5113912;28;19916;-69
2022/10/01 01:31:29;;;;;;;;;;;17.80;99.90;;;;;;5095706;28;19907;-71
2022/10/01 01:33:55;;;;;;;;;;;17.70;99.90;;;;;;5113989;28;19919;-70
2022/10/01 01:36:31;;;;;;;;;;;17.70;99.90;;;;;;5114051;28;19908;-71
2022/10/01 01:39:01;;;;;;;;;;;17.70;99.90;;;;;;5113808;28;19908;-69
2022/10/01 01:41:28;;;;;;;;;;;17.70;99.90;;;;;;5113975;28;19907;-70
2022/10/01 01:43:56;;;;;;;;;;;17.70;99.90;;;;;;5113909;28;19911;-71
2022/10/01 01:46:23;;;;;;;;;;;17.70;99.90;;;;;;5095284;28;19908;-70
2022/10/01 01:48:50;;;;;;;;;;;17.70;99.90;;;;;;5113740;28;19923;-69
2022/10/01 01:51:19;;;;;;;;;;;17.60;99.90;;;;;;5113817;28;19956;-71
2022/10/01 01:53:44;;;;;;;;;;;17.60;99.90;;;;;;5113739;28;19908;-70
2022/10/01 01:56:10;;;;;;;;;;;17.60;99.90;;;;;;5095387;28;19957;-69
2022/10/01 01:58:36;;;;;;;;;;;17.60;99.90;;;;;;5113541;28;20019;-70
2022/10/01 02:01:02;;;;;;;;;;;17.60;99.90;;;;;;5113721;28;19962;-70
2022/10/01 02:03:29;;;;;;;;;;;17.70;99.90;;;;;;5095155;28;19951;-70
2022/10/01 02:05:57;;;;;;;;;;;17.70;99.90;;;;;;5095305;28;19937;-71
2022/10/01 02:08:29;;;;;;;;;;;17.70;99.90;;;;;;5113329;28;20372;-71
2022/10/01 02:11:24;;;;;;;;;;;17.70;99.90;;;;;;5113628;28;19968;-70
2022/10/01 02:14:02;;;;;;;;;;;17.70;99.90;;;;;;5107190;28;19908;-71
2022/10/01 02:16:47;;;;;;;;;;;17.70;99.90;;;;;;5113581;28;19951;-72
2022/10/01 02:19:18;;;;;;;;;;;17.70;99.90;;;;;;5095031;28;19911;-71
2022/10/01 02:22:01;;;;;;;;;;;17.60;99.90;;;;;;5113316;28;19915;-71
2022/10/01 02:24:46;;;;;;;;;;;17.60;99.90;;;;;;5095221;28;20425;-72
2022/10/01 02:27:17;;;;;;;;;;;17.60;99.90;;;;;;5113518;28;19932;-71
2022/10/01 02:29:44;;;;;;;;;;;17.60;99.90;;;;;;5095174;28;20376;-70
2022/10/01 02:32:12;;;;;;;;;;;17.60;99.90;;;;;;5113169;28;20368;-71
2022/10/01 02:34:39;;;;;;;;;;;17.60;99.90;;;;;;5113173;28;20379;-71
2022/10/01 02:37:06;;;;;;;;;;;17.60;99.90;;;;;;5113124;28;20295;-73
2022/10/01 02:39:33;;;;;;;;;;;17.60;99.90;;;;;;5097692;28;20356;-74
2022/10/01 02:41:59;;;;;;;;;;;17.50;99.90;;;;;;5117324;28;20363;-71
2022/10/01 02:44:28;;;;;;;;;;;17.50;99.90;;;;;;5116949;28;19908;-71
2022/10/01 02:46:53;;;;;;;;;;;17.50;99.90;;;;;;5116925;28;19912;-72
2022/10/01 02:49:19;;;;;;;;;;;17.50;99.90;;;;;;5116814;28;20441;-71
2022/10/01 02:51:55;;;;;;;;;;;17.50;99.90;;;;;;5116846;28;20379;-71
2022/10/01 02:54:26;;;;;;;;;;;17.50;99.90;;;;;;5116856;28;19908;-71
2022/10/01 02:59:36;;;;;;;;;;;17.50;99.90;;;;;;5116813;28;20015;-70
2022/10/01 03:02:02;;;;;;;;;;;17.50;99.90;;;;;;5116630;28;19911;-68
2022/10/01 03:04:28;;;;;;;;;;;17.50;99.90;;;;;;5116959;28;19908;-70
2022/10/01 03:06:53;;;;;;;;;;;17.50;99.90;;;;;;5116582;28;20313;-68
2022/10/01 03:09:19;;;;;;;;;;;17.50;99.90;;;;;;5116460;28;19959;-69
2022/10/01 03:11:44;;;;;;;;;;;17.40;99.90;;;;;;5098140;28;20351;-70
2022/10/01 03:14:10;;;;;;;;;;;17.50;99.90;;;;;;5116736;28;19912;-71
2022/10/01 03:16:36;;;;;;;;;;;17.40;99.90;;;;;;5116110;28;20002;-71
2022/10/01 03:19:02;;;;;;;;;;;17.50;99.90;;;;;;5116686;28;19912;-71
2022/10/01 03:21:28;;;;;;;;;;;17.40;99.90;;;;;;5116283;28;19976;-71
2022/10/01 03:23:54;;;;;;;;;;;17.40;99.90;;;;;;5116245;28;19908;-71
2022/10/01 03:26:19;;;;;;;;;;;17.40;99.90;;;;;;5116196;28;20362;-71
2022/10/01 03:28:45;;;;;;;;;;;17.40;99.90;;;;;;5116137;28;19915;-72
2022/10/01 03:31:11;;;;;;;;;;;17.40;99.90;;;;;;5116104;28;20372;-68
2022/10/01 03:33:36;;;;;;;;;;;17.40;99.90;;;;;;5097518;28;19920;-71
2022/10/01 03:36:02;;;;;;;;;;;17.30;99.90;;;;;;5115881;28;19979;-71
2022/10/01 03:38:28;;;;;;;;;;;17.30;99.90;;;;;;5116011;28;20015;-71
2022/10/01 03:40:54;;;;;;;;;;;17.30;99.90;;;;;;5116217;28;20364;-70
2022/10/01 03:43:20;;;;;;;;;;;17.30;99.90;;;;;;5115846;28;20011;-70
2022/10/01 03:45:45;;;;;;;;;;;17.30;99.90;;;;;;5115502;28;19931;-70
2022/10/01 03:48:11;;;;;;;;;;;17.30;99.90;;;;;;5115833;28;20364;-70
2022/10/01 03:50:37;;;;;;;;;;;17.20;99.90;;;;;;5115460;28;20386;-71
2022/10/01 03:53:03;;;;;;;;;;;17.20;99.90;;;;;;5115598;28;19918;-70
2022/10/01 03:55:28;;;;;;;;;;;17.20;99.90;;;;;;5097310;28;19912;-69
2022/10/01 03:57:54;;;;;;;;;;;17.10;99.90;;;;;;5115623;28;19919;-69
2022/10/01 04:00:20;;;;;;;;;;;17.10;99.90;;;;;;5115351;28;19908;-71
2022/10/01 04:02:45;;;;;;;;;;;17.10;99.90;;;;;;5115488;28;20367;-70
2022/10/01 04:05:11;;;;;;;;;;;17.10;99.90;;;;;;5115177;28;19908;-70
2022/10/01 04:07:36;;;;;;;;;;;17.00;99.90;;;;;;5115437;28;19908;-70
2022/10/01 04:10:02;;;;;;;;;;;17.00;99.90;;;;;;5115212;28;19930;-69
2022/10/01 04:12:28;;;;;;;;;;;17.00;99.90;;;;;;5096956;28;19915;-70
2022/10/01 04:14:53;;;;;;;;;;;17.00;99.90;;;;;;5097004;28;19912;-69
2022/10/01 04:17:19;;;;;;;;;;;17.00;99.90;;;;;;5096860;28;19931;-70
2022/10/01 04:19:45;;;;;;;;;;;17.00;99.90;;;;;;5115208;28;19951;-71
2022/10/01 04:22:10;;;;;;;;;;;17.00;99.90;;;;;;5096821;28;19918;-69
2022/10/01 04:24:36;;;;;;;;;;;17.00;99.90;;;;;;5115050;28;19912;-69
2022/10/01 04:27:02;;;;;;;;;;;17.00;99.90;;;;;;5114969;28;19951;-69
2022/10/01 04:29:27;;;;;;;;;;;17.00;99.90;;;;;;5114659;28;19922;-69
2022/10/01 04:31:53;;;;;;;;;;;17.00;99.90;;;;;;5114855;28;19912;-68
2022/10/01 04:34:50;;;;;;;;;;;17.10;99.90;;;;;;5114968;28;19920;-69
2022/10/01 04:37:10;;;;;;;;;;;17.10;99.90;;;;;;5114294;28;19907;-69
2022/10/01 04:39:36;;;;;;;;;;;17.10;99.90;;;;;;5114570;28;19959;-67
2022/10/01 04:42:01;;;;;;;;;;;17.20;99.90;;;;;;5096359;28;20387;-69
2022/10/01 04:44:30;;;;;;;;;;;17.20;99.90;;;;;;5114375;28;19912;-68
2022/10/01 04:46:55;;;;;;;;;;;17.20;99.90;;;;;;5096322;28;20423;-69
2022/10/01 04:49:21;;;;;;;;;;;17.20;99.90;;;;;;5114567;28;20003;-69
2022/10/01 04:51:47;;;;;;;;;;;17.30;99.90;;;;;;5114602;28;19943;-69
2022/10/01 04:54:13;;;;;;;;;;;17.20;99.90;;;;;;5096227;28;19915;-69
2022/10/01 04:56:39;;;;;;;;;;;17.30;99.90;;;;;;5114199;28;19912;-66
2022/10/01 04:59:04;;;;;;;;;;;17.30;99.90;;;;;;5114522;28;19908;-67
2022/10/01 05:01:31;;;;;;;;;;;17.30;99.90;;;;;;5113938;28;19915;-69
2022/10/01 05:03:56;;;;;;;;;;;17.30;99.90;;;;;;5114018;28;19976;-69
2022/10/01 05:06:22;;;;;;;;;;;17.30;99.90;;;;;;5113992;28;20347;-68
2022/10/01 05:08:48;;;;;;;;;;;17.20;99.90;;;;;;5114299;28;20354;-67
2022/10/01 05:11:14;;;;;;;;;;;17.30;99.90;;;;;;5114227;28;19912;-69
2022/10/01 05:13:40;;;;;;;;;;;17.30;99.90;;;;;;5114279;28;19914;-70
2022/10/01 05:16:06;;;;;;;;;;;17.30;99.90;;;;;;5114169;28;19908;-68
2022/10/01 05:18:32;;;;;;;;;;;17.40;99.90;;;;;;5095924;28;20011;-69
2022/10/01 05:20:58;;;;;;;;;;;17.40;99.90;;;;;;5114073;28;19960;-67
2022/10/01 05:23:23;;;;;;;;;;;17.40;99.90;;;;;;5114160;28;20362;-67
2022/10/01 05:25:49;;;;;;;;;;;17.50;99.90;;;;;;5114085;28;19907;-69
2022/10/01 05:28:15;;;;;;;;;;;17.50;99.90;;;;;;5114057;28;19912;-70
2022/10/01 05:30:40;;;;;;;;;;;17.50;99.90;;;;;;5113937;28;19926;-70
2022/10/01 05:33:06;;;;;;;;;;;17.50;99.90;;;;;;5113596;28;19920;-71
2022/10/01 05:35:32;;;;;;;;;;;17.60;99.90;;;;;;5113938;28;19908;-70
2022/10/01 05:37:58;;;;;;;;;;;17.50;99.90;;;;;;5095570;28;19908;-70
2022/10/01 05:40:26;;;;;;;;;;;17.50;99.90;;;;;;5113913;28;19908;-71
2022/10/01 05:42:52;;;;;;;;;;;17.50;99.90;;;;;;5095603;28;19919;-70
2022/10/01 05:45:19;;;;;;;;;;;17.50;99.90;;;;;;5095583;28;19973;-67
2022/10/01 05:47:47;;;;;;;;;;;17.50;99.90;;;;;;5113856;28;19915;-67
2022/10/01 05:50:13;;;;;;;;;;;17.60;99.90;;;;;;5113511;28;20280;-70
2022/10/01 05:52:41;;;;;;;;;;;17.60;99.90;;;;;;5110372;28;19908;-68
2022/10/01 05:55:07;;;;;;;;;;;17.70;99.90;;;;;;5112815;28;20016;-68
2022/10/01 05:57:32;;;;;;;;;;;17.70;99.90;;;;;;5113456;28;19916;-67
2022/10/01 05:59:58;;;;;;;;;;;17.70;99.90;;;;;;5094576;28;19908;-68
2022/10/01 06:02:24;;;;;;;;;;;17.80;99.90;;;;;;5112936;28;20433;-68
2022/10/01 06:04:50;;;;;;;;;;;17.80;99.90;;;;;;5095013;28;19908;-68
2022/10/01 06:07:15;;;;;;;;;;;17.80;99.90;;;;;;5113327;28;19933;-67
2022/10/01 06:09:41;;;;;;;;;;;17.90;99.90;;;;;;5094970;28;20007;-68
2022/10/01 06:12:08;;;;;;;;;;;17.90;99.90;;;;;;5113087;28;19908;-69
2022/10/01 06:14:34;;;;;;;;;;;17.90;99.90;;;;;;5097775;28;19915;-68
2022/10/01 06:17:00;;;;;;;;;;;17.90;99.90;;;;;;5117305;28;19907;-67
2022/10/01 06:19:25;;;;;;;;;;;17.90;99.90;;;;;;5116653;28;19908;-67
2022/10/01 06:21:51;;;;;;;;;;;17.90;99.90;;;;;;5116804;28;19915;-67
2022/10/01 06:24:17;;;;;;;;;;;17.90;99.90;;;;;;5098184;28;20335;-66
2022/10/01 06:26:42;;;;;;;;;;;17.90;99.90;;;;;;5098200;28;20116;-69
2022/10/01 06:29:09;;;;;;;;;;;17.90;99.90;;;;;;5116867;28;19919;-68
2022/10/01 06:31:34;;;;;;;;;;;18.00;99.90;;;;;;5116740;28;19908;-68
2022/10/01 06:34:00;;;;;;;;;;;18.00;99.90;;;;;;5116218;28;19919;-69
2022/10/01 06:36:26;;;;;;;;;;;18.00;99.90;;;;;;5098579;28;19907;-69
2022/10/01 06:38:51;;;;;;;;;;;18.10;99.90;;;;;;5116871;28;19908;-70
2022/10/01 06:41:17;;;;;;;;;;;18.00;99.90;;;;;;5116983;28;19915;-69
2022/10/01 06:43:43;;;;;;;;;;;18.00;99.90;;;;;;5116436;28;20355;-69
2022/10/01 06:46:09;;;;;;;;;;;18.10;99.90;;;;;;5115977;28;19911;-69
2022/10/01 06:48:35;;;;;;;;;;;18.20;99.90;;;;;;5116592;28;19934;-69
2022/10/01 06:51:01;;;;;;;;;;;18.20;99.90;;;;;;5116081;28;19935;-69
2022/10/01 06:53:27;;;;;;;;;;;18.20;99.90;;;;;;5116330;28;20355;-69
2022/10/01 06:55:52;;;;;;;;;;;18.30;99.90;;;;;;5116188;28;19916;-69
2022/10/01 06:58:19;;;;;;;;;;;18.30;99.90;;;;;;5116052;28;19961;-66
2022/10/01 07:00:46;;;;;;;;;;;18.30;99.90;;;;;;5116073;28;20715;-66
2022/10/01 07:03:13;;;;;;;;;;;18.40;99.90;;;;;;5116346;28;19911;-66
2022/10/01 07:05:39;;;;;;;;;;;18.40;99.90;;;;;;5116287;28;19915;-66
2022/10/01 07:08:05;;;;;;;;;;;18.50;99.90;;;;;;5097182;28;19931;-66
2022/10/01 07:10:33;;;;;;;;;;;18.50;99.90;;;;;;5115904;28;19973;-66
2022/10/01 07:13:08;;;;;;;;;;;18.50;99.90;;;;;;5115631;28;19907;-66
2022/10/01 07:15:34;;;;;;;;;;;18.50;99.90;;;;;;5116335;28;20317;-66
2022/10/01 07:18:00;;;;;;;;;;;18.60;99.90;;;;;;5115633;28;19915;-66
2022/10/01 07:20:26;;;;;;;;;;;18.50;99.90;;;;;;5115702;28;19912;-71
2022/10/01 07:22:58;;;;;;;;;;;18.50;99.90;;;;;;5114268;28;19916;-69
2022/10/01 07:25:25;;;;;;;;;;;18.60;99.90;;;;;;5095792;28;19908;-69
2022/10/01 07:27:54;;;;;;;;;;;18.50;99.90;;;;;;5115952;28;19961;-68
2022/10/01 07:30:20;;;;;;;;;;;18.50;99.90;;;;;;5115977;28;19923;-69
2022/10/01 07:32:46;;;;;;;;;;;18.50;99.90;;;;;;5097139;28;19920;-68
2022/10/01 07:35:12;;;;;;;;;;;18.50;99.90;;;;;;5115300;28;19915;-67
2022/10/01 07:37:38;;;;;;;;;;;;;;;;;;5115872;28;19911;-65
2022/10/01 07:40:04;;;;;;;;;;;18.60;99.90;;;;;;5115931;28;20390;-67
2022/10/01 07:42:30;;;;;;;;;;;18.60;99.90;;;;;;5115413;28;19908;-69
2022/10/01 07:44:55;;;;;;;;;;;18.70;99.90;;;;;;5131519;27;19911;-69
2022/10/01 07:47:21;;;;;;;;;;;18.80;99.90;;;;;;5115714;28;19908;-69
2022/10/01 07:49:47;;;;;;;;;;;19.10;99.90;;;;;;5131506;27;20389;-67
2022/10/01 07:52:12;;;;;;;;;;;19.30;99.90;;;;;;5131545;27;20049;-66
2022/10/01 07:54:38;;;;;;;;;;;19.40;99.90;;;;;;5097164;28;19919;-66
2022/10/01 07:57:03;;;;;;;;;;;19.50;99.90;;;;;;5115439;28;20040;-66
2022/10/01 07:59:30;;;;;;;;;;;19.60;99.90;;;;;;5115474;28;19914;-64
2022/10/01 08:01:55;;;;;;;;;;;19.80;99.90;;;;;;5115468;28;19914;-68
2022/10/01 08:07:06;;;;;;;;;;;19.70;99.90;;;;;;5115350;28;19914;-69
2022/10/01 08:09:32;;;;;;;;;;;19.70;99.90;;;;;;5115114;28;19922;-67
2022/10/01 08:11:58;;;;;;;;;;;19.80;99.90;;;;;;5112156;28;19998;-69
2022/10/01 08:14:24;;;;;;;;;;;19.80;99.90;;;;;;5113915;28;19999;-67
2022/10/01 08:16:50;;;;;;;;;;;19.80;99.90;;;;;;5114471;28;20284;-68
2022/10/01 08:19:16;;;;;;;;;;;19.90;99.90;;;;;;5114221;28;19914;-65
2022/10/01 08:21:41;;;;;;;;;;;20.00;99.90;;;;;;5096082;28;20257;-67
2022/10/01 08:24:07;;;;;;;;;;;20.20;99.90;;;;;;5096027;28;20253;-67
2022/10/01 08:26:33;;;;;;;;;;;20.30;99.90;;;;;;5114234;28;19922;-67
2022/10/01 08:28:58;;;;;;;;;;;20.40;99.90;;;;;;5114462;28;20297;-67
2022/10/01 08:31:24;;;;;;;;;;;20.40;99.90;;;;;;5114517;28;19930;-68
2022/10/01 08:33:50;;;;;;;;;;;20.40;99.90;;;;;;5111717;28;19976;-67
2022/10/01 08:36:16;;;;;;;;;;;20.50;99.90;;;;;;5113413;28;20064;-72
2022/10/01 08:38:46;;;;;;;;;;;20.40;99.90;;;;;;5096242;28;20378;-69
2022/10/01 08:41:17;;;;;;;;;;;20.30;99.90;;;;;;5114822;28;19919;-68
2022/10/01 08:43:45;;;;;;;;;;;20.30;99.90;;;;;;5113634;28;20142;-68
2022/10/01 08:46:12;;;;;;;;;;;20.20;99.90;;;;;;5114854;28;19907;-67
2022/10/01 08:48:43;;;;;;;;;;;20.20;99.90;;;;;;5095891;28;20516;-67
2022/10/01 08:51:22;;;;;;;;;;;20.30;99.90;;;;;;5096266;28;20368;-67
2022/10/01 08:53:56;;;;;;;;;;;20.40;99.90;;;;;;5114395;28;19908;-67
2022/10/01 08:56:23;;;;;;;;;;;20.40;99.90;;;;;;5113991;28;20455;-67
2022/10/01 08:58:56;;;;;;;;;;;20.60;99.90;;;;;;5113430;28;20554;-67
2022/10/01 09:01:22;;;;;;;;;;;20.70;99.90;;;;;;5113946;28;20321;-67
2022/10/01 09:03:48;;;;;;;;;;;20.80;99.90;;;;;;5113946;28;19923;-67
2022/10/01 09:06:17;;;;;;;;;;;20.90;99.90;;;;;;5113823;28;20023;-67
2022/10/01 09:09:01;;;;;;;;;;;21.00;99.90;;;;;;5113913;28;19915;-67
2022/10/01 09:11:46;;;;;;;;;;;21.10;99.90;;;;;;5113746;28;20368;-68
2022/10/01 09:14:30;;;;;;;;;;;21.30;99.90;;;;;;5113821;28;19915;-68
2022/10/01 09:17:01;;;;;;;;;;;21.40;99.90;;;;;;5114006;28;20003;-68
2022/10/01 09:19:36;;;;;;;;;;;21.40;99.90;;;;;;5095629;28;19914;-68
2022/10/01 09:22:10;;;;;;;;;;;21.40;99.90;;;;;;5113734;28;19907;-68
2022/10/01 09:24:39;;;;;;;;;;;21.40;99.90;;;;;;5113639;28;19908;-67
2022/10/01 09:27:10;;;;;;;;;;;21.50;99.90;;;;;;5114223;28;19912;-67
2022/10/01 09:29:41;;;;;;;;;;;21.50;99.90;;;;;;5113797;28;20453;-68
2022/10/01 09:32:10;;;;;;;;;;;21.60;99.90;;;;;;5113597;28;19927;-67
2022/10/01 09:34:37;;;;;;;;;;;21.70;99.90;;;;;;5113674;28;19962;-68
2022/10/01 09:37:05;;;;;;;;;;;21.80;99.90;;;;;;5113878;28;19955;-68
2022/10/01 09:39:40;;;;;;;;;;;22.00;99.90;;;;;;5114114;28;19999;-68
2022/10/01 09:42:06;;;;;;;;;;;22.20;99.90;;;;;;5113838;28;20340;-67
2022/10/01 09:44:32;;;;;;;;;;;22.40;99.90;;;;;;5113721;28;19947;-68
2022/10/01 09:46:58;;;;;;;;;;;22.50;99.90;;;;;;5114043;28;20260;-67
2022/10/01 09:49:30;;;;;;;;;;;22.80;99.90;;;;;;5098739;28;19915;-68
2022/10/01 09:52:19;;;;;;;;;;;23.20;99.90;;;;;;5097035;28;20018;-66
2022/10/01 09:54:52;;;;;;;;;;;23.60;99.90;;;;;;5102787;28;20374;-67
2022/10/01 09:57:24;;;;;;;;;;;23.70;99.90;;;;;;5116935;28;20360;-66
2022/10/01 09:59:53;;;;;;;;;;;24.10;99.90;;;;;;5117394;28;19908;-66
2022/10/01 10:02:29;;;;;;;;;;;24.40;99.90;;;;;;5128787;27;19915;-66
2022/10/01 10:05:01;;;;;;;;;;;24.30;99.90;;;;;;5117006;28;19915;-66
2022/10/01 10:07:28;;;;;;;;;;;24.50;99.90;;;;;;5117300;28;19908;-66
2022/10/01 10:09:54;;;;;;;;;;;24.70;99.90;;;;;;5116870;28;19916;-66
2022/10/01 10:12:28;;;;;;;;;;;24.90;99.90;;;;;;5133222;27;20268;-66
2022/10/01 10:14:55;;;;;;;;;;;25.00;99.90;;;;;;5117290;28;19912;-66
2022/10/01 10:17:21;;;;;;;;;;;25.30;99.90;;;;;;5098440;28;19912;-70
2022/10/01 10:19:50;;;;;;;;;;;25.60;99.90;;;;;;5098788;28;19957;-69
2022/10/01 10:22:26;;;;;;;;;;;26.60;99.90;;;;;;5117042;28;20575;-70
2022/10/01 10:24:52;;;;;;;;;;;26.40;99.90;;;;;;5117160;28;20356;-71
2022/10/01 10:27:25;;;;;;;;;;;26.00;99.90;;;;;;5116938;28;20467;-70
2022/10/01 10:30:05;;;;;;;;;;;26.70;99.90;;;;;;5117051;28;19973;-70
2022/10/01 10:32:31;;;;;;;;;;;27.80;99.90;;;;;;5116422;28;19919;-68
2022/10/01 10:35:03;;;;;;;;;;;27.50;99.90;;;;;;5116966;28;20348;-68
2022/10/01 10:37:30;;;;;;;;;;;28.00;99.90;;;;;;5098465;28;19915;-69
2022/10/01 10:39:57;;;;;;;;;;;29.30;99.90;;;;;;5132455;27;20385;-70
2022/10/01 10:42:24;;;;;;;;;;;30.50;99.90;;;;;;5116775;28;19907;-69
2022/10/01 10:44:50;;;;;;;;;;;31.40;99.90;;;;;;5116323;28;20321;-68
2022/10/01 10:47:17;;;;;;;;;;;31.70;99.90;;;;;;5116802;28;19930;-67
2022/10/01 10:49:44;;;;;;;;;;;32.40;99.90;;;;;;5116529;28;20018;-67
2022/10/01 10:52:23;;;;;;;;;;;32.50;99.90;;;;;;5116337;28;20440;-67
2022/10/01 10:54:55;;;;;;;;;;;32.90;99.00;;;;;;5116713;28;19908;-66
2022/10/01 10:57:27;;;;;;;;;;;33.40;96.90;;;;;;5114357;28;19978;-66
2022/10/01 11:00:00;;;;;;;;;;;33.90;94.30;;;;;;5115052;28;19930;-69
2022/10/01 11:02:30;;;;;;;;;;;32.70;93.50;;;;;;5132007;27;19908;-70
2022/10/01 11:05:02;;;;;;;;;;;32.80;93.70;;;;;;5116225;28;19912;-69
2022/10/01 11:07:28;;;;;;;;;;;34.10;92.20;;;;;;5097768;28;19908;-71
2022/10/01 11:10:04;;;;;;;;;;;34.30;90.80;;;;;;5097857;28;19920;-69
2022/10/01 11:12:39;;;;;;;;;;;33.20;90.20;;;;;;5115920;28;20257;-68
2022/10/01 11:15:20;;;;;;;;;;;33.50;90.60;;;;;;5116167;28;19908;-67
2022/10/01 11:17:54;;;;;;;;;;;32.30;90.50;;;;;;5115749;28;19919;-67
2022/10/01 11:20:32;;;;;;;;;;;34.10;89.60;;;;;;5115368;28;20257;-67
2022/10/01 11:23:26;;;;;;;;;;;35.00;85.30;;;;;;5116023;28;19992;-67
2022/10/01 11:26:10;;;;;;;;;;;35.10;86.50;;;;;;5111214;28;20356;-67
2022/10/01 11:28:43;;;;;;;;;;;35.20;83.30;;;;;;5113074;28;19916;-68
2022/10/01 11:31:21;;;;;;;;;;;34.30;84.50;;;;;;5097788;28;20260;-68
2022/10/01 11:33:47;;;;;;;;;;;;;;;;;;5115914;28;20280;-68
2022/10/01 11:36:25;;;;;;;;;;;34.30;84.10;;;;;;5097575;28;19908;-67
2022/10/01 11:39:12;;;;;;;;;;;34.60;83.10;;;;;;5116185;28;19990;-66
2022/10/01 11:41:40;;;;;;;;;;;34.70;82.80;;;;;;5115785;28;19908;-69
2022/10/01 11:44:15;;;;;;;;;;;33.50;82.70;;;;;;5115937;28;19908;-68
2022/10/01 11:46:54;;;;;;;;;;;34.70;81.90;;;;;;5115830;28;19908;-69
2022/10/01 11:49:26;;;;;;;;;;;35.10;78.80;;;;;;5115833;28;19916;-68
2022/10/01 11:51:56;;;;;;;;;;;35.20;79.10;;;;;;5115822;28;19965;-69
2022/10/01 11:54:22;;;;;;;;;;;36.00;77.30;;;;;;5115548;28;19947;-69
2022/10/01 11:59:49;;;;;;;;;;;38.10;73.70;;;;;;5115446;28;19914;-67
2022/10/01 12:02:17;;;;;;;;;;;38.50;73.60;;;;;;5114417;28;19912;-66
2022/10/01 12:04:44;;;;;;;;;;;38.80;72.30;;;;;;5097130;28;19926;-66
2022/10/01 12:07:14;;;;;;;;;;;38.80;70.90;;;;;;5115388;28;20370;-66
2022/10/01 12:09:48;;;;;;;;;;;39.70;70.20;;;;;;5115256;28;20014;-67
2022/10/01 12:12:16;;;;;;;;;;;39.40;68.80;;;;;;5115120;28;19998;-65
2022/10/01 12:14:49;;;;;;;;;;;39.30;69.30;;;;;;5111816;28;20268;-67
2022/10/01 12:17:19;;;;;;;;;;;39.20;67.60;;;;;;5114303;28;19943;-66
2022/10/01 12:19:47;;;;;;;;;;;39.20;67.70;;;;;;5126395;27;19970;-66
2022/10/01 12:22:14;;;;;;;;;;;38.80;68.90;;;;;;5093304;28;20324;-66
2022/10/01 12:24:42;;;;;;;;;;;39.00;66.20;;;;;;5094412;28;19908;-66
2022/10/01 12:27:11;;;;;;;;;;;38.80;66.90;;;;;;5094238;28;20396;-66
2022/10/01 12:29:52;;;;;;;;;;;38.90;67.00;;;;;;5093156;28;19922;-66
2022/10/01 12:32:40;;;;;;;;;;;39.00;66.10;;;;;;5103547;28;20317;-66
2022/10/01 12:35:19;;;;;;;;;;;38.90;66.00;;;;;;5100543;28;19915;-66
2022/10/01 12:37:48;;;;;;;;;;;39.10;66.90;;;;;;5114658;28;19915;-65
2022/10/01 12:40:20;;;;;;;;;;;39.20;65.90;;;;;;5114164;28;20276;-66
2022/10/01 12:43:13;;;;;;;;;;;39.90;65.50;;;;;;5114130;28;19912;-67
2022/10/01 12:45:38;;;;;;;;;;;;;;;;;;5109155;28;19908;-68
2022/10/01 12:48:24;;;;;;;;;;;35.20;67.20;;;;;;5114346;28;19912;-66
2022/10/01 12:50:50;;;;;;;;;;;34.80;69.60;;;;;;5114316;28;19923;-65
2022/10/01 12:53:36;;;;;;;;;;;34.20;73.20;;;;;;5095969;28;19911;-66
2022/10/01 12:56:06;;;;;;;;;;;31.90;77.30;;;;;;5113546;28;20237;-66
2022/10/01 12:58:34;;;;;;;;;;;30.80;77.60;;;;;;5114248;28;19907;-66
2022/10/01 13:01:03;;;;;;;;;;;30.40;80.80;;;;;;5114221;28;19915;-66
2022/10/01 13:03:36;;;;;;;;;;;30.00;81.10;;;;;;5113695;28;19923;-65
2022/10/01 13:06:01;;;;;;;;;;;29.80;82.50;;;;;;5113910;28;19911;-67
2022/10/01 13:08:27;;;;;;;;;;;29.80;82.60;;;;;;5114228;28;20256;-65
2022/10/01 13:11:05;;;;;;;;;;;29.60;82.20;;;;;;5114046;28;19938;-64
2022/10/01 13:13:32;;;;;;;;;;;29.40;83.80;;;;;;5114336;28;20379;-65
2022/10/01 13:15:57;;;;;;;;;;;29.60;86.00;;;;;;5114257;28;20368;-70
2022/10/01 13:18:26;;;;;;;;;;;29.70;84.90;;;;;;5114199;28;19969;-65
2022/10/01 13:20:59;;;;;;;;;;;29.30;84.90;;;;;;5114173;28;20003;-67
2022/10/01 13:23:37;;;;;;;;;;;28.60;85.70;;;;;;5113710;28;19962;-65
2022/10/01 13:26:07;;;;;;;;;;;28.20;87.50;;;;;;5114105;28;19908;-65
2022/10/01 13:28:48;;;;;;;;;;;27.80;89.60;;;;;;5113994;28;19908;-64
2022/10/01 13:31:15;;;;;;;;;;;26.50;92.30;;;;;;5114024;28;19919;-64
2022/10/01 13:33:40;;;;;;;;;;;24.80;96.20;;;;;;5129405;27;19962;-69
2022/10/01 13:36:07;;;;;;;;;;;23.40;99.50;;;;;;5113881;28;19958;-72
2022/10/01 13:38:45;;;;;;;;;;;22.60;99.90;;;;;;5129743;28;19912;-70
2022/10/01 13:41:30;;;;;;;;;;;22.00;99.90;;;;;;5113870;28;19915;-67
2022/10/01 13:44:07;;;;;;;;;;;21.60;99.90;;;;;;5114258;28;19983;-71
2022/10/01 13:46:35;;;;;;;;;;;21.20;99.90;;;;;;5092854;28;19912;-68
2022/10/01 13:49:21;;;;;;;;;;;21.10;99.90;;;;;;5113247;28;19915;-68
2022/10/01 13:51:46;;;;;;;;;;;21.00;99.90;;;;;;5112085;28;19907;-65
2022/10/01 13:54:21;;;;;;;;;;;20.80;99.90;;;;;;5113412;28;20409;-68
2022/10/01 13:56:46;;;;;;;;;;;20.80;99.90;;;;;;5112589;28;19912;-66
2022/10/01 13:59:39;;;;;;;;;;;20.80;99.90;;;;;;5112781;28;20362;-64
2022/10/01 14:02:23;;;;;;;;;;;20.70;99.90;;;;;;5124142;28;19920;-67
2022/10/01 14:04:49;;;;;;;;;;;20.90;99.90;;;;;;5095281;28;19999;-67
2022/10/01 14:07:22;;;;;;;;;;;21.00;99.90;;;;;;5113514;28;19918;-68
2022/10/01 14:09:49;;;;;;;;;;;21.00;99.90;;;;;;5113144;28;19966;-68
2022/10/01 14:18:16;;;;;;;;;;;20.60;99.90;;;;;;5113164;28;19915;-70
2022/10/01 14:20:54;;;;;;;;;;;20.60;99.90;;;;;;5112574;28;20283;-73
2022/10/01 14:23:24;;;;;;;;;;;20.60;99.90;;;;;;5113363;28;19908;-67
2022/10/01 14:25:53;;;;;;;;;;;20.70;99.90;;;;;;5095018;28;19908;-72
2022/10/01 14:28:18;;;;;;;;;;;20.90;99.90;;;;;;5113298;28;19947;-71
2022/10/01 14:31:03;;;;;;;;;;;21.20;99.90;;;;;;5094942;28;19985;-74
2022/10/01 14:33:28;;;;;;;;;;;21.40;99.90;;;;;;5111462;28;19935;-71
2022/10/01 14:36:12;;;;;;;;;;;21.40;99.90;;;;;;5115784;28;19911;-71
2022/10/01 14:38:38;;;;;;;;;;;21.40;99.90;;;;;;5097564;28;19908;-67
2022/10/01 14:41:04;;;;;;;;;;;21.30;99.90;;;;;;5116959;28;19912;-65
2022/10/01 14:43:30;;;;;;;;;;;21.20;99.90;;;;;;5116676;28;19907;-69
2022/10/01 14:46:00;;;;;;;;;;;21.10;99.90;;;;;;5116566;28;19912;-70